Time;durP1;ratioP1;P1;durP2;ratioP2;P2;SDS_P1;SDS_P2;PMS_P1;PMS_P2;Temp;Humidity;BMP_temperature;BMP_pressure;BME280_temperature;BME280_humidity;BME280_pressure;Samples;Min_cycle;Max_cycle;Signal;HPM_P1;HPM_P2
2023/03/08 00:01:22;;;;;;;11.27;6.00;;;1.30;99.90;;;;;;7341026;32;20122;-55
2023/03/08 00:05:23;;;;;;;10.68;6.30;;;1.20;99.90;;;;;;7338381;32;20201;-55
2023/03/08 00:09:25;;;;;;;15.15;6.43;;;1.20;99.90;;;;;;7335589;32;20112;-55
2023/03/08 00:13:27;;;;;;;8.88;5.85;;;1.20;99.90;;;;;;7336334;32;20259;-55
2023/03/08 00:17:28;;;;;;;13.85;6.85;;;1.20;99.90;;;;;;7335027;32;20103;-55
2023/03/08 00:21:30;;;;;;;10.82;6.70;;;1.10;99.90;;;;;;7340676;32;20517;-55
2023/03/08 00:25:32;;;;;;;10.98;6.62;;;1.10;99.90;;;;;;7334859;32;20186;-55
2023/03/08 00:29:33;;;;;;;10.68;6.22;;;1.20;99.90;;;;;;7333780;32;20237;-54
2023/03/08 00:33:35;;;;;;;12.55;6.75;;;1.10;99.90;;;;;;7340325;32;20125;-54
2023/03/08 00:37:37;;;;;;;12.63;6.25;;;1.20;99.90;;;;;;7335169;32;20139;-53
2023/03/08 00:41:39;;;;;;;11.43;6.87;;;1.20;99.90;;;;;;7342227;32;20135;-54
2023/03/08 00:45:41;;;;;;;11.90;6.65;;;1.20;99.90;;;;;;7336369;32;20225;-54
2023/03/08 00:49:43;;;;;;;13.62;6.82;;;1.30;99.90;;;;;;7339027;32;20489;-53
2023/03/08 00:53:45;;;;;;;10.35;6.70;;;1.30;99.90;;;;;;7333860;32;20162;-53
2023/03/08 00:57:47;;;;;;;10.25;6.80;;;1.30;99.90;;;;;;7340353;32;20130;-54
2023/03/08 01:01:49;;;;;;;15.60;7.80;;;1.30;99.90;;;;;;7334813;32;20107;-54
2023/03/08 01:05:53;;;;;;;13.45;7.20;;;1.30;99.90;;;;;;7333996;32;20115;-54
2023/03/08 01:09:55;;;;;;;14.02;7.53;;;1.40;99.90;;;;;;7334211;32;20216;-53
2023/03/08 01:13:57;;;;;;;14.93;7.68;;;1.30;99.90;;;;;;7339660;32;20107;-54
2023/03/08 01:17:58;;;;;;;13.60;7.85;;;1.20;99.90;;;;;;7334905;32;20108;-53
2023/03/08 01:22:00;;;;;;;13.15;7.82;;;1.20;99.90;;;;;;7336014;32;20484;-54
2023/03/08 01:26:07;;;;;;;15.07;8.15;;;1.20;99.90;;;;;;7333243;32;20562;-54
2023/03/08 01:30:09;;;;;;;13.30;8.32;;;1.30;99.90;;;;;;7337393;32;20143;-53
2023/03/08 01:34:11;;;;;;;15.75;8.27;;;1.30;99.90;;;;;;7336825;32;20133;-53
2023/03/08 01:38:13;;;;;;;15.25;9.20;;;1.20;99.90;;;;;;7335370;32;20604;-53
2023/03/08 01:42:14;;;;;;;14.95;8.00;;;1.20;99.90;;;;;;7339797;32;20131;-56
2023/03/08 01:46:24;;;;;;;13.80;7.68;;;1.20;99.90;;;;;;7342297;32;21329;-54
2023/03/08 01:50:26;;;;;;;14.32;7.97;;;1.20;99.90;;;;;;7336285;32;20119;-54
2023/03/08 01:54:37;;;;;;;18.12;9.25;;;1.20;99.90;;;;;;7331510;32;20106;-54
2023/03/08 01:58:42;;;;;;;21.25;9.93;;;1.20;99.90;;;;;;7341584;32;20456;-54
2023/03/08 02:02:50;;;;;;;19.80;9.88;;;1.20;99.90;;;;;;7339654;32;20114;-54
2023/03/08 02:06:52;;;;;;;18.23;10.27;;;1.20;99.90;;;;;;7335313;32;20215;-53
2023/03/08 02:10:56;;;;;;;19.70;10.98;;;1.20;99.90;;;;;;7331330;32;20228;-54
2023/03/08 02:14:57;;;;;;;16.23;9.77;;;1.20;99.90;;;;;;7335145;32;20234;-54
2023/03/08 02:19:07;;;;;;;19.42;11.35;;;1.20;99.90;;;;;;7333721;32;20114;-54
2023/03/08 02:23:16;;;;;;;21.40;11.35;;;1.20;99.90;;;;;;7335218;32;20107;-55
2023/03/08 02:27:23;;;;;;;23.17;12.07;;;1.20;99.90;;;;;;7335778;32;20493;-54
2023/03/08 02:31:24;;;;;;;20.83;12.20;;;1.20;99.90;;;;;;7337827;32;20103;-55
2023/03/08 02:35:26;;;;;;;22.50;12.65;;;1.10;99.90;;;;;;7330978;32;20133;-55
2023/03/08 02:39:28;;;;;;;20.95;12.07;;;1.20;99.90;;;;;;7341816;32;20156;-54
2023/03/08 02:43:30;;;;;;;20.60;12.27;;;1.20;99.90;;;;;;7334050;32;20338;-54
2023/03/08 02:47:32;;;;;;;20.08;11.70;;;1.20;99.90;;;;;;7340324;32;20107;-55
2023/03/08 02:51:34;;;;;;;18.55;11.80;;;1.20;99.90;;;;;;7333483;32;20224;-54
2023/03/08 02:55:36;;;;;;;21.02;11.95;;;1.20;99.90;;;;;;7335633;32;20220;-54
2023/03/08 02:59:37;;;;;;;21.05;12.13;;;1.20;99.90;;;;;;7341987;32;20139;-54
2023/03/08 03:03:40;;;;;;;24.00;12.32;;;1.20;99.90;;;;;;7334670;32;20138;-54
2023/03/08 03:07:42;;;;;;;21.73;11.90;;;1.10;99.90;;;;;;7343737;32;20134;-54
2023/03/08 03:11:44;;;;;;;20.83;11.60;;;1.10;99.90;;;;;;7343429;32;20253;-55
2023/03/08 03:15:46;;;;;;;22.55;12.18;;;1.10;99.90;;;;;;7340142;32;20849;-54
2023/03/08 03:19:47;;;;;;;22.37;13.32;;;1.20;99.90;;;;;;7340753;32;20194;-54
2023/03/08 03:23:49;;;;;;;24.37;14.45;;;1.20;99.90;;;;;;7343188;32;20115;-54
2023/03/08 03:27:53;;;;;;;25.12;14.52;;;1.20;99.90;;;;;;7341146;32;20226;-54
2023/03/08 03:31:54;;;;;;;27.65;14.52;;;1.20;99.90;;;;;;7334076;32;20647;-54
2023/03/08 03:35:56;;;;;;;27.45;14.87;;;1.20;99.90;;;;;;7340173;32;20455;-55
2023/03/08 03:39:58;;;;;;;26.87;15.45;;;1.10;99.90;;;;;;7325108;32;20164;-54
2023/03/08 03:43:59;;;;;;;28.12;15.55;;;1.00;99.90;;;;;;7339849;32;20289;-54
2023/03/08 03:48:01;;;;;;;29.30;15.65;;;1.00;99.90;;;;;;7338380;32;20119;-54
2023/03/08 03:52:03;;;;;;;27.85;15.13;;;1.10;99.90;;;;;;7343798;32;20213;-54
2023/03/08 03:56:07;;;;;;;29.77;15.70;;;1.10;99.90;;;;;;7335330;32;20245;-55
2023/03/08 04:00:10;;;;;;;26.90;15.70;;;1.10;99.90;;;;;;7341429;32;20623;-54
2023/03/08 04:04:11;;;;;;;29.42;15.13;;;1.20;99.90;;;;;;7332428;32;20111;-55
2023/03/08 04:08:13;;;;;;;27.95;15.35;;;1.20;99.90;;;;;;7339454;32;20107;-54
2023/03/08 04:12:15;;;;;;;29.60;16.02;;;1.20;99.90;;;;;;7338868;32;20619;-54
2023/03/08 04:16:31;;;;;;;29.30;15.80;;;1.30;99.90;;;;;;7344586;32;20183;-54
2023/03/08 04:20:32;;;;;;;26.00;15.82;;;1.30;99.90;;;;;;7332536;32;20237;-54
2023/03/08 04:24:34;;;;;;;26.90;15.82;;;1.20;99.90;;;;;;7331328;32;20125;-54
2023/03/08 04:28:36;;;;;;;26.55;15.30;;;1.20;99.90;;;;;;7340403;32;20131;-54
2023/03/08 04:32:37;;;;;;;33.30;16.05;;;1.20;99.90;;;;;;7330925;32;20182;-54
2023/03/08 04:36:39;;;;;;;23.40;14.52;;;1.20;99.90;;;;;;7345191;32;20145;-54
2023/03/08 04:45:25;;;;;;;28.20;15.65;;;1.10;99.90;;;;;;7314795;32;20260;-54
2023/03/08 04:49:27;;;;;;;26.35;14.75;;;1.20;99.90;;;;;;7340898;32;20132;-54
2023/03/08 04:53:30;;;;;;;25.52;14.00;;;1.20;99.90;;;;;;7341630;32;20194;-54
2023/03/08 04:57:33;;;;;;;26.27;14.60;;;1.30;99.90;;;;;;7335956;32;20565;-54
2023/03/08 05:01:35;;;;;;;25.42;13.57;;;1.20;99.90;;;;;;7337497;32;20120;-54
2023/03/08 05:05:37;;;;;;;24.95;14.68;;;1.20;99.90;;;;;;7327615;32;20141;-54
2023/03/08 05:09:39;;;;;;;19.50;12.68;;;1.30;99.90;;;;;;7335695;32;20100;-54
2023/03/08 05:13:40;;;;;;;23.77;14.55;;;1.30;99.90;;;;;;7329681;32;20139;-54
2023/03/08 05:17:42;;;;;;;19.87;12.55;;;1.30;99.90;;;;;;7333193;32;20151;-54
2023/03/08 05:21:43;;;;;;;27.80;14.43;;;1.20;99.90;;;;;;7330227;32;20172;-54
2023/03/08 05:25:45;;;;;;;24.40;13.82;;;1.20;99.90;;;;;;7339597;32;20288;-54
2023/03/08 05:29:47;;;;;;;26.25;13.60;;;1.30;99.90;;;;;;7336421;32;20151;-54
2023/03/08 05:33:50;;;;;;;23.73;14.13;;;1.30;99.90;;;;;;7344676;32;20115;-54
2023/03/08 05:37:52;;;;;;;25.48;15.65;;;1.20;99.90;;;;;;7326233;32;20175;-54
2023/03/08 05:41:53;;;;;;;27.50;15.70;;;1.20;99.90;;;;;;7333439;32;20138;-54
2023/03/08 05:45:57;;;;;;;25.42;15.38;;;1.10;99.90;;;;;;7323918;32;20249;-54
2023/03/08 05:49:59;;;;;;;27.37;16.20;;;1.00;99.90;;;;;;7337521;32;20221;-54
2023/03/08 05:54:01;;;;;;;27.20;16.40;;;0.90;99.90;;;;;;7330028;32;20138;-54
2023/03/08 05:58:03;;;;;;;31.23;17.17;;;0.90;99.90;;;;;;7335202;32;20442;-54
2023/03/08 06:02:04;;;;;;;29.63;17.05;;;0.90;99.90;;;;;;7331237;32;20616;-55
2023/03/08 06:06:06;;;;;;;30.12;16.73;;;0.80;99.90;;;;;;7326456;32;20178;-55
2023/03/08 06:10:08;;;;;;;30.02;17.17;;;0.80;99.90;;;;;;7336923;32;20779;-55
2023/03/08 06:14:10;;;;;;;31.75;15.73;;;0.80;99.90;;;;;;7334325;32;20122;-55
2023/03/08 06:18:14;;;;;;;27.98;15.23;;;0.70;99.90;;;;;;7335637;32;20125;-55
2023/03/08 06:22:16;;;;;;;28.48;14.55;;;0.70;99.90;;;;;;7328601;32;20242;-55
2023/03/08 06:26:18;;;;;;;28.55;13.95;;;0.70;99.90;;;;;;7330495;32;20222;-55
2023/03/08 06:30:20;;;;;;;28.45;14.55;;;0.70;99.90;;;;;;7327373;32;20242;-55
2023/03/08 06:34:21;;;;;;;30.02;14.98;;;0.70;99.90;;;;;;7334355;32;20442;-55
2023/03/08 06:38:23;;;;;;;22.60;11.77;;;0.60;99.90;;;;;;7334394;32;20355;-55
2023/03/08 06:42:25;;;;;;;19.70;9.60;;;0.50;99.90;;;;;;7332264;32;20849;-57
2023/03/08 06:46:41;;;;;;;23.60;9.73;;;0.50;99.90;;;;;;7328423;32;20554;-54
2023/03/08 06:50:44;;;;;;;22.30;11.77;;;0.50;99.90;;;;;;7339309;32;20542;-54
2023/03/08 06:54:45;;;;;;;20.60;10.40;;;0.50;99.90;;;;;;7336738;32;20208;-54
2023/03/08 06:58:47;;;;;;;22.60;10.50;;;0.40;99.90;;;;;;7331536;32;20133;-54
2023/03/08 07:02:49;;;;;;;17.77;9.00;;;0.40;99.90;;;;;;7330792;32;20111;-55
2023/03/08 07:06:51;;;;;;;17.70;8.95;;;0.40;99.90;;;;;;7336787;32;20139;-57
2023/03/08 07:10:52;;;;;;;20.40;9.45;;;0.30;99.90;;;;;;7334445;32;20107;-54
2023/03/08 07:14:54;;;;;;;22.33;9.90;;;0.30;99.90;;;;;;7335473;32;20111;-54
2023/03/08 07:18:56;;;;;;;21.23;9.68;;;0.40;99.90;;;;;;7335192;32;20232;-54
2023/03/08 07:23:00;;;;;;;21.30;10.02;;;0.40;99.90;;;;;;7336673;32;20130;-54
2023/03/08 07:27:02;;;;;;;19.27;9.10;;;0.50;99.90;;;;;;7329122;32;20532;-54
2023/03/08 07:31:04;;;;;;;19.87;9.57;;;0.50;99.90;;;;;;7332174;32;20128;-54
2023/03/08 07:35:08;;;;;;;21.30;9.05;;;0.60;99.90;;;;;;7333417;32;20202;-54
2023/03/08 07:39:10;;;;;;;13.88;7.60;;;0.60;99.90;;;;;;7339115;32;20551;-55
2023/03/08 07:43:12;;;;;;;17.25;8.55;;;0.60;99.90;;;;;;7329882;32;20190;-55
2023/03/08 07:47:13;;;;;;;15.77;6.82;;;0.70;99.90;;;;;;7334869;32;20133;-54
2023/03/08 07:51:15;;;;;;;12.70;4.47;;;0.70;99.90;;;;;;7336975;32;20247;-55
2023/03/08 07:55:17;;;;;;;8.48;4.80;;;0.60;99.90;;;;;;7339273;32;20392;-55
2023/03/08 07:59:19;;;;;;;12.82;4.95;;;0.50;99.90;;;;;;7339944;32;20114;-54
2023/03/08 08:03:21;;;;;;;9.10;4.55;;;0.40;99.90;;;;;;7337494;32;20178;-54
2023/03/08 08:07:23;;;;;;;11.10;4.80;;;0.50;99.90;;;;;;7341829;32;20286;-54
2023/03/08 08:11:24;;;;;;;11.10;5.22;;;0.50;99.90;;;;;;7339258;32;20148;-54
2023/03/08 08:15:29;;;;;;;8.73;4.00;;;0.50;99.90;;;;;;7332760;32;20206;-55
2023/03/08 08:19:31;;;;;;;7.87;3.83;;;0.50;99.90;;;;;;7334054;32;20130;-54
2023/03/08 08:23:34;;;;;;;9.07;4.30;;;0.40;99.90;;;;;;7335484;32;20447;-55
2023/03/08 08:27:36;;;;;;;9.07;4.00;;;0.50;99.90;;;;;;7334864;32;20115;-54
2023/03/08 08:31:37;;;;;;;6.47;3.92;;;0.40;99.90;;;;;;7338472;32;20571;-54
2023/03/08 08:35:39;;;;;;;6.43;3.40;;;0.40;99.90;;;;;;7332046;32;20233;-54
2023/03/08 08:39:44;;;;;;;7.03;4.03;;;0.50;99.90;;;;;;7334588;32;20258;-54
2023/03/08 08:43:46;;;;;;;5.68;3.28;;;0.50;99.90;;;;;;7338315;32;20168;-55
2023/03/08 08:47:48;;;;;;;5.62;3.33;;;0.50;99.90;;;;;;7337467;32;20218;-54
2023/03/08 08:51:52;;;;;;;5.18;3.08;;;0.40;99.90;;;;;;7337995;32;20123;-55
2023/03/08 08:55:53;;;;;;;8.63;3.72;;;0.50;99.90;;;;;;7338352;32;20508;-55
2023/03/08 08:59:55;;;;;;;7.18;3.53;;;0.40;99.90;;;;;;7339684;32;20107;-55
2023/03/08 09:03:58;;;;;;;7.80;3.80;;;0.50;99.90;;;;;;7336890;32;20202;-55
2023/03/08 09:08:00;;;;;;;6.53;3.83;;;0.50;99.90;;;;;;7335400;32;20158;-55
2023/03/08 09:12:02;;;;;;;6.45;4.28;;;0.50;99.90;;;;;;7326217;32;20508;-55
2023/03/08 09:16:04;;;;;;;7.25;4.35;;;0.50;99.90;;;;;;7333080;32;20121;-55
2023/03/08 09:20:09;;;;;;;9.15;3.90;;;0.60;99.90;;;;;;7338070;32;20179;-56
2023/03/08 09:24:12;;;;;;;5.60;4.00;;;0.70;99.90;;;;;;7334783;32;20872;-58
2023/03/08 09:28:13;;;;;;;5.40;3.58;;;0.80;99.90;;;;;;7335968;32;20230;-56
2023/03/08 09:32:15;;;;;;;6.22;3.97;;;0.70;99.90;;;;;;7334751;32;20550;-56
2023/03/08 09:36:17;;;;;;;7.43;3.92;;;0.70;99.90;;;;;;7330418;32;20210;-57
2023/03/08 09:40:23;;;;;;;6.87;3.95;;;0.90;99.90;;;;;;7340123;32;20190;-56
2023/03/08 09:44:49;;;;;;;4.32;3.00;;;1.00;99.90;;;;;;7331514;32;20525;-57
2023/03/08 09:48:52;;;;;;;4.65;3.05;;;1.10;99.90;;;;;;7332708;32;22626;-56
2023/03/08 09:53:17;;;;;;;5.20;3.03;;;1.10;99.90;;;;;;7332452;32;20209;-56
2023/03/08 09:57:26;;;;;;;4.03;2.70;;;1.20;99.90;;;;;;7326677;32;20134;-56
2023/03/08 10:01:49;;;;;;;4.57;2.70;;;1.10;99.90;;;;;;7327495;32;20461;-56
2023/03/08 10:06:11;;;;;;;3.55;2.67;;;1.10;99.90;;;;;;7332830;32;20167;-56
2023/03/08 10:10:23;;;;;;;3.05;2.20;;;1.10;99.90;;;;;;7334906;32;20107;-56
2023/03/08 10:14:31;;;;;;;3.75;2.53;;;1.10;99.90;;;;;;7334775;32;20453;-56
2023/03/08 10:18:42;;;;;;;4.20;2.62;;;1.10;99.90;;;;;;7330172;32;20108;-56
2023/03/08 10:22:48;;;;;;;5.22;2.80;;;1.20;99.90;;;;;;7327245;32;20130;-56
2023/03/08 10:26:49;;;;;;;6.00;2.97;;;1.30;99.90;;;;;;7334689;32;20142;-56
2023/03/08 10:30:55;;;;;;;4.00;2.90;;;1.40;99.90;;;;;;7330098;32;20565;-56
2023/03/08 10:35:03;;;;;;;4.82;3.20;;;1.50;99.90;;;;;;7332261;32;20121;-56
2023/03/08 10:39:08;;;;;;;4.40;2.97;;;1.50;99.90;;;;;;7330637;32;20526;-56
2023/03/08 10:43:38;;;;;;;5.15;3.08;;;1.60;99.90;;;;;;7328407;32;20099;-56
2023/03/08 10:47:40;;;;;;;5.45;3.78;;;1.50;99.90;;;;;;7322637;32;20151;-56
2023/03/08 10:51:51;;;;;;;5.85;4.18;;;1.40;99.90;;;;;;7337791;32;20157;-54
2023/03/08 10:55:54;;;;;;;8.23;4.00;;;1.20;99.90;;;;;;7329820;32;20581;-57
2023/03/08 11:00:01;;;;;;;7.35;5.03;;;1.30;99.90;;;;;;7335362;32;20515;-56
2023/03/08 11:04:16;;;;;;;;;;;1.30;99.90;;;;;;7330767;32;20140;-56
2023/03/08 11:08:21;;;;;;;5.72;4.20;;;1.50;99.90;;;;;;7339782;32;20025;-56
2023/03/08 11:12:24;;;;;;;6.03;4.00;;;1.70;99.90;;;;;;7336250;32;20183;-56
2023/03/08 11:16:36;;;;;;;6.40;4.12;;;1.80;99.90;;;;;;7334533;32;20182;-56
2023/03/08 11:20:52;;;;;;;5.07;4.10;;;1.80;99.90;;;;;;7336659;32;20198;-56
2023/03/08 11:25:13;;;;;;;6.25;3.60;;;1.80;99.90;;;;;;7340724;32;20225;-56
2023/03/08 11:29:30;;;;;;;4.72;4.00;;;2.00;99.90;;;;;;7340434;32;20260;-56
2023/03/08 11:34:00;;;;;;;4.57;3.90;;;2.00;99.90;;;;;;7338580;32;20497;-56
2023/03/08 11:38:17;;;;;;;7.90;3.85;;;2.00;99.90;;;;;;7342844;32;20134;-56
2023/03/08 11:42:41;;;;;;;4.45;3.35;;;2.10;99.90;;;;;;7344656;32;20704;-54
2023/03/08 11:46:42;;;;;;;4.68;3.50;;;2.10;99.90;;;;;;7340467;32;20454;-54
2023/03/08 11:50:52;;;;;;;4.78;3.92;;;2.20;99.90;;;;;;7342423;32;20107;-54
2023/03/08 11:55:19;;;;;;;5.60;4.10;;;2.10;99.90;;;;;;7344117;32;20419;-55
2023/03/08 11:59:33;;;;;;;5.28;4.30;;;1.90;99.90;;;;;;7349237;32;20135;-55
2023/03/08 12:03:39;;;;;;;5.80;3.90;;;1.90;99.90;;;;;;7338083;32;20116;-54
2023/03/08 12:07:51;;;;;;;6.10;4.40;;;1.70;99.90;;;;;;7334823;32;20179;-54
2023/03/08 12:12:15;;;;;;;5.07;4.47;;;1.60;99.90;;;;;;7339214;32;20341;-54
2023/03/08 12:16:18;;;;;;;5.97;5.05;;;1.70;99.90;;;;;;7342822;32;20781;-55
2023/03/08 12:20:22;;;;;;;6.15;4.80;;;1.70;99.90;;;;;;7340452;32;20215;-54
2023/03/08 12:24:33;;;;;;;7.75;5.37;;;1.70;99.90;;;;;;7341715;32;20111;-55
2023/03/08 12:28:42;;;;;;;7.05;5.70;;;1.70;99.90;;;;;;7331891;32;20122;-55
2023/03/08 12:32:46;;;;;;;7.05;6.32;;;1.70;99.90;;;;;;7331789;32;20114;-55
2023/03/08 12:36:48;;;;;;;7.22;5.93;;;1.60;99.90;;;;;;7330171;32;20212;-55
2023/03/08 12:40:52;;;;;;;8.85;6.87;;;1.70;99.90;;;;;;7335554;32;20511;-54
2023/03/08 12:45:19;;;;;;;8.25;6.95;;;1.90;99.90;;;;;;7341162;32;20229;-55
2023/03/08 12:49:29;;;;;;;8.88;7.03;;;1.90;99.90;;;;;;7344920;32;20170;-55
2023/03/08 12:53:54;;;;;;;8.43;7.32;;;1.90;99.90;;;;;;7329096;32;20735;-54
2023/03/08 12:57:59;;;;;;;8.85;7.25;;;1.90;99.90;;;;;;7327267;32;20319;-55
2023/03/08 13:02:23;;;;;;;7.82;6.95;;;2.10;99.90;;;;;;7337416;32;20150;-55
2023/03/08 13:06:24;;;;;;;8.50;7.18;;;2.10;99.90;;;;;;7337137;32;20100;-55
2023/03/08 13:10:36;;;;;;;9.50;6.87;;;2.30;99.90;;;;;;7334128;32;20250;-55
2023/03/08 13:14:40;;;;;;;7.22;6.35;;;2.40;99.90;;;;;;7327741;32;20139;-55
2023/03/08 13:18:47;;;;;;;8.05;7.20;;;2.30;99.90;;;;;;7332600;32;20381;-55
2023/03/08 13:23:09;;;;;;;10.45;7.07;;;2.30;99.90;;;;;;7331060;32;20121;-56
2023/03/08 13:27:16;;;;;;;8.95;7.15;;;2.20;99.90;;;;;;7327374;32;20181;-56
2023/03/08 13:31:21;;;;;;;9.77;6.72;;;2.20;99.90;;;;;;7336938;32;20218;-56
2023/03/08 13:35:23;;;;;;;9.40;7.03;;;2.30;99.90;;;;;;7331899;32;20154;-56
2023/03/08 13:39:28;;;;;;;8.55;6.53;;;2.30;99.90;;;;;;7342465;32;20835;-56
2023/03/08 13:43:33;;;;;;;6.37;5.72;;;2.40;99.90;;;;;;7333367;32;20125;-55
2023/03/08 13:47:37;;;;;;;6.72;5.82;;;2.30;99.90;;;;;;7330521;32;20712;-56
2023/03/08 13:51:42;;;;;;;7.05;5.85;;;2.30;99.90;;;;;;7333760;32;20206;-55
2023/03/08 13:55:46;;;;;;;6.85;5.62;;;2.30;99.90;;;;;;7333888;32;20384;-55
2023/03/08 13:59:53;;;;;;;11.38;6.30;;;2.20;99.90;;;;;;7331686;32;20217;-55
2023/03/08 14:03:57;;;;;;;7.43;6.53;;;2.00;99.90;;;;;;7331657;32;20102;-55
2023/03/08 14:08:04;;;;;;;9.43;6.53;;;2.00;99.90;;;;;;7331759;32;20149;-55
2023/03/08 14:12:06;;;;;;;9.00;7.30;;;2.10;99.90;;;;;;7337309;32;20213;-55
2023/03/08 14:16:21;;;;;;;8.25;7.25;;;2.10;99.90;;;;;;7335321;32;20107;-55
2023/03/08 14:20:24;;;;;;;11.90;8.50;;;2.10;99.90;;;;;;7333270;32;20103;-57
2023/03/08 14:24:29;;;;;;;9.48;8.32;;;2.00;99.90;;;;;;7338771;32;20115;-56
2023/03/08 14:28:39;;;;;;;11.32;7.87;;;2.00;99.90;;;;;;7336809;32;20138;-56
2023/03/08 14:33:00;;;;;;;12.98;9.07;;;2.00;99.90;;;;;;7333171;32;20194;-55
2023/03/08 14:37:11;;;;;;;10.00;8.90;;;1.90;99.90;;;;;;7336570;32;20123;-55
2023/03/08 14:41:14;;;;;;;11.05;8.45;;;1.90;99.90;;;;;;7333514;32;20214;-55
2023/03/08 14:45:16;;;;;;;9.25;7.68;;;2.00;99.90;;;;;;7327837;32;20120;-55
2023/03/08 14:49:21;;;;;;;12.00;8.95;;;2.00;99.90;;;;;;7323345;32;20289;-55
2023/03/08 14:53:33;;;;;;;11.35;8.25;;;2.00;99.90;;;;;;7326359;32;20133;-55
2023/03/08 14:57:35;;;;;;;9.38;7.95;;;2.10;99.90;;;;;;7331898;32;20300;-57
2023/03/08 15:01:38;;;;;;;10.45;8.30;;;2.10;99.90;;;;;;7337097;32;20137;-56
2023/03/08 15:05:39;;;;;;;10.93;8.25;;;2.00;99.90;;;;;;7333534;32;20131;-56
2023/03/08 15:09:41;;;;;;;9.25;8.20;;;2.10;99.90;;;;;;7330561;32;20107;-56
2023/03/08 15:13:44;;;;;;;12.48;9.02;;;2.10;99.90;;;;;;7333263;32;20108;-55
2023/03/08 15:17:47;;;;;;;13.10;9.65;;;2.10;99.90;;;;;;7331977;32;20111;-56
2023/03/08 15:21:49;;;;;;;11.55;9.15;;;2.00;99.90;;;;;;7328935;32;20705;-55
2023/03/08 15:25:51;;;;;;;10.43;8.30;;;2.10;99.90;;;;;;7332646;32;20216;-56
2023/03/08 15:29:52;;;;;;;11.23;9.02;;;2.10;99.90;;;;;;7330305;32;20222;-55
2023/03/08 15:33:54;;;;;;;10.32;8.50;;;2.10;99.90;;;;;;7335892;32;20800;-55
2023/03/08 15:37:56;;;;;;;11.80;9.40;;;2.20;99.90;;;;;;7329305;32;20201;-57
2023/03/08 15:41:58;;;;;;;12.45;10.25;;;2.10;99.90;;;;;;7338939;32;20194;-56
2023/03/08 15:46:00;;;;;;;14.68;10.77;;;1.90;99.90;;;;;;7334615;32;20115;-54
2023/03/08 15:50:03;;;;;;;14.38;11.20;;;2.00;99.90;;;;;;7328215;32;20122;-57
2023/03/08 15:54:05;;;;;;;13.85;11.40;;;1.90;99.90;;;;;;7328455;32;20107;-58
2023/03/08 15:58:07;;;;;;;15.98;11.68;;;1.90;99.90;;;;;;7332207;32;20436;-57
2023/03/08 16:02:15;;;;;;;20.95;14.52;;;1.80;99.90;;;;;;7334023;32;20108;-56
2023/03/08 16:06:17;;;;;;;13.32;10.93;;;1.90;99.90;;;;;;7340075;32;20445;-55
2023/03/08 16:10:18;;;;;;;15.18;11.10;;;1.80;99.90;;;;;;7339046;32;20264;-54
2023/03/08 16:14:20;;;;;;;14.02;10.70;;;1.90;99.90;;;;;;7336125;32;20488;-55
2023/03/08 16:18:22;;;;;;;15.00;11.43;;;1.80;99.90;;;;;;7340727;32;20225;-54
2023/03/08 16:22:24;;;;;;;13.52;11.48;;;1.90;99.90;;;;;;7329930;32;20227;-55
2023/03/08 16:26:29;;;;;;;14.05;10.73;;;1.80;99.90;;;;;;7339058;32;20148;-56
2023/03/08 16:30:31;;;;;;;14.95;11.35;;;1.80;99.90;;;;;;7346221;32;20194;-56
2023/03/08 16:34:33;;;;;;;14.20;11.43;;;1.80;99.90;;;;;;7335575;32;20210;-55
2023/03/08 16:38:35;;;;;;;14.15;11.12;;;1.70;99.90;;;;;;7335460;32;21038;-57
2023/03/08 16:42:37;;;;;;;14.02;11.60;;;1.70;99.90;;;;;;7337816;32;20670;-56
2023/03/08 16:46:40;;;;;;;16.08;12.20;;;1.60;99.90;;;;;;7338537;32;20695;-56
2023/03/08 16:50:49;;;;;;;16.58;12.98;;;1.60;99.90;;;;;;7336189;32;20111;-56
2023/03/08 16:54:50;;;;;;;17.17;13.15;;;1.50;99.90;;;;;;7333896;32;20710;-55
2023/03/08 16:58:55;;;;;;;16.23;13.10;;;1.60;99.90;;;;;;7345540;32;20185;-56
2023/03/08 17:02:56;;;;;;;19.67;14.13;;;1.50;99.90;;;;;;7333456;32;20181;-56
2023/03/08 17:06:58;;;;;;;20.75;15.15;;;1.50;99.90;;;;;;7333514;32;20270;-56
2023/03/08 17:11:02;;;;;;;19.98;14.48;;;1.60;99.90;;;;;;7335497;32;20111;-56
2023/03/08 17:15:04;;;;;;;21.75;15.55;;;1.50;99.90;;;;;;7335650;32;20403;-55
2023/03/08 17:19:07;;;;;;;22.83;16.08;;;1.50;99.90;;;;;;7337779;32;20150;-56
2023/03/08 17:23:11;;;;;;;24.05;17.10;;;1.40;99.90;;;;;;7343434;32;20786;-55
2023/03/08 17:27:13;;;;;;;22.83;16.77;;;1.40;99.90;;;;;;7337321;32;20308;-55
2023/03/08 17:31:17;;;;;;;24.73;16.62;;;1.40;99.90;;;;;;7337341;32;20174;-57
2023/03/08 17:35:21;;;;;;;27.03;18.23;;;1.40;99.90;;;;;;7339528;32;20114;-56
2023/03/08 17:39:23;;;;;;;26.40;17.92;;;1.40;99.90;;;;;;7326566;32;20137;-54
2023/03/08 17:43:25;;;;;;;26.10;17.37;;;1.40;99.90;;;;;;7340007;32;20161;-56
2023/03/08 17:47:26;;;;;;;27.75;18.83;;;1.50;99.90;;;;;;7339249;32;20238;-55
2023/03/08 17:51:29;;;;;;;28.50;19.50;;;1.30;99.90;;;;;;7334517;32;20191;-55
2023/03/08 17:55:31;;;;;;;26.10;18.42;;;1.30;99.90;;;;;;7328577;32;20129;-55
2023/03/08 17:59:33;;;;;;;29.20;20.20;;;1.30;99.90;;;;;;7335755;32;20106;-54
2023/03/08 18:03:35;;;;;;;31.08;18.92;;;1.30;99.90;;;;;;7330021;32;20171;-55
2023/03/08 18:07:37;;;;;;;27.33;19.05;;;1.20;99.90;;;;;;7335798;32;20158;-55
2023/03/08 18:11:42;;;;;;;29.02;19.67;;;1.30;99.90;;;;;;7338809;32;20257;-55
2023/03/08 18:15:43;;;;;;;26.42;18.95;;;1.30;99.90;;;;;;7334281;32;20111;-55
2023/03/08 18:19:46;;;;;;;29.55;19.42;;;1.30;99.90;;;;;;7335307;32;20123;-57
2023/03/08 18:23:48;;;;;;;28.90;19.87;;;1.20;99.90;;;;;;7340341;32;20953;-55
2023/03/08 18:27:50;;;;;;;33.05;19.80;;;1.30;99.90;;;;;;7328503;32;20754;-55
2023/03/08 18:31:52;;;;;;;29.33;20.27;;;1.30;99.90;;;;;;7333706;32;20604;-55
2023/03/08 18:35:57;;;;;;;27.15;18.05;;;1.20;99.90;;;;;;7326950;32;20137;-54
2023/03/08 18:39:59;;;;;;;30.33;20.88;;;1.30;99.90;;;;;;7339879;32;20818;-55
2023/03/08 18:44:00;;;;;;;30.25;19.23;;;1.20;99.90;;;;;;7335616;32;20137;-56
2023/03/08 18:48:02;;;;;;;31.05;21.02;;;1.30;99.90;;;;;;7328969;32;20107;-56
2023/03/08 18:52:04;;;;;;;31.87;21.30;;;1.20;99.90;;;;;;7334888;32;20233;-54
2023/03/08 18:56:06;;;;;;;30.85;20.50;;;1.20;99.90;;;;;;7335942;32;20175;-56
2023/03/08 19:00:10;;;;;;;30.98;21.02;;;1.20;99.90;;;;;;7329701;32;20572;-55
2023/03/08 19:04:12;;;;;;;30.65;20.33;;;1.30;99.90;;;;;;7325567;32;20363;-55
2023/03/08 19:08:13;;;;;;;30.90;20.42;;;1.30;99.90;;;;;;7334433;32;20141;-55
2023/03/08 19:12:15;;;;;;;32.58;21.17;;;1.30;99.90;;;;;;7333609;32;20477;-56
2023/03/08 19:16:25;;;;;;;33.92;22.25;;;1.30;99.90;;;;;;7337436;32;20208;-56
2023/03/08 19:20:28;;;;;;;32.63;21.60;;;1.20;99.90;;;;;;7329090;32;20276;-56
2023/03/08 19:24:30;;;;;;;32.42;21.27;;;1.30;99.90;;;;;;7332266;32;20104;-56
2023/03/08 19:28:31;;;;;;;32.88;21.70;;;1.30;99.90;;;;;;7327938;32;20454;-56
2023/03/08 19:32:33;;;;;;;34.60;21.37;;;1.30;99.90;;;;;;7331453;32;20206;-55
2023/03/08 19:36:36;;;;;;;31.52;21.17;;;1.30;99.90;;;;;;7330539;32;20472;-57
2023/03/08 19:40:42;;;;;;;31.33;21.23;;;1.40;99.90;;;;;;7329355;32;20116;-56
2023/03/08 19:44:47;;;;;;;32.42;21.65;;;1.40;99.90;;;;;;7339125;32;20160;-57
2023/03/08 19:48:49;;;;;;;32.17;21.35;;;1.40;99.90;;;;;;7330212;32;20232;-56
2023/03/08 19:52:50;;;;;;;34.38;22.92;;;1.40;99.90;;;;;;7335994;32;20716;-56
2023/03/08 19:56:53;;;;;;;34.28;23.25;;;1.40;99.90;;;;;;7332413;32;20111;-55
2023/03/08 20:01:07;;;;;;;34.72;23.00;;;1.40;99.90;;;;;;7340411;32;20230;-57
2023/03/08 20:05:09;;;;;;;36.53;22.95;;;1.30;99.90;;;;;;7336396;32;20198;-56
2023/03/08 20:09:12;;;;;;;34.70;22.10;;;1.30;99.90;;;;;;7337960;32;20178;-56
2023/03/08 20:13:14;;;;;;;35.47;21.80;;;1.40;99.90;;;;;;7333408;32;20163;-56
2023/03/08 20:17:15;;;;;;;35.58;22.83;;;1.40;99.90;;;;;;7336338;32;20187;-57
2023/03/08 20:21:19;;;;;;;33.97;22.02;;;1.40;99.90;;;;;;7341702;32;20234;-58
2023/03/08 20:25:21;;;;;;;34.88;21.67;;;1.50;99.90;;;;;;7332968;32;20160;-56
2023/03/08 20:29:23;;;;;;;32.35;21.35;;;1.50;99.90;;;;;;7335759;32;20249;-56
2023/03/08 20:33:24;;;;;;;37.30;21.87;;;1.50;99.90;;;;;;7335042;32;20092;-56
2023/03/08 20:37:26;;;;;;;36.15;22.75;;;1.50;99.90;;;;;;7338016;32;20103;-56
2023/03/08 20:41:29;;;;;;;37.97;22.17;;;1.60;99.90;;;;;;7332536;32;20234;-56
2023/03/08 20:45:30;;;;;;;35.40;21.52;;;1.50;99.90;;;;;;7330808;32;20182;-56
2023/03/08 20:49:32;;;;;;;37.05;22.90;;;1.50;99.90;;;;;;7330196;32;20112;-56
2023/03/08 20:53:34;;;;;;;35.40;21.75;;;1.60;99.90;;;;;;7332861;32;20786;-56
2023/03/08 20:57:36;;;;;;;33.95;22.27;;;1.60;99.90;;;;;;7341042;32;20194;-56
2023/03/08 21:01:39;;;;;;;33.90;22.08;;;1.70;99.90;;;;;;7333310;32;20206;-55
2023/03/08 21:05:41;;;;;;;38.53;22.37;;;1.70;99.90;;;;;;7337735;32;20229;-54
2023/03/08 21:09:43;;;;;;;34.80;22.17;;;1.80;99.90;;;;;;7335298;32;20137;-53
2023/03/08 21:13:49;;;;;;;34.80;21.55;;;1.70;99.90;;;;;;7336171;32;20182;-54